createdAt,value
2019-06-11T00:01:06.477Z,15.00
2019-06-11T00:03:32.444Z,15.00
2019-06-11T00:05:58.936Z,14.90
2019-06-11T00:08:25.076Z,14.90
2019-06-11T00:10:53.005Z,14.90
2019-06-11T00:13:19.136Z,14.80
2019-06-11T00:15:45.313Z,15.00
2019-06-11T00:18:12.377Z,15.10
2019-06-11T00:20:38.783Z,15.00
2019-06-11T00:23:06.195Z,15.00
2019-06-11T00:25:32.905Z,15.10
2019-06-11T00:27:59.108Z,15.10
2019-06-11T00:30:25.192Z,15.20
2019-06-11T00:32:53.391Z,15.20
2019-06-11T00:35:19.276Z,15.20
2019-06-11T00:37:45.342Z,15.20
2019-06-11T00:40:12.449Z,15.40
2019-06-11T00:42:38.700Z,15.40
2019-06-11T00:45:08.456Z,15.30
2019-06-11T00:47:35.208Z,15.20
2019-06-11T00:50:05.351Z,15.20
2019-06-11T00:52:32.944Z,15.10
2019-06-11T00:54:59.220Z,15.00
2019-06-11T00:57:25.296Z,15.00
2019-06-11T00:59:52.406Z,15.20
2019-06-11T01:02:18.664Z,15.30
2019-06-11T01:04:44.748Z,15.30
2019-06-11T01:07:12.783Z,15.40
2019-06-11T01:09:38.830Z,15.50
2019-06-11T01:12:08.589Z,15.50
2019-06-11T01:14:33.252Z,15.50
2019-06-11T01:16:59.414Z,15.40
2019-06-11T01:19:25.476Z,15.50
2019-06-11T01:21:52.262Z,15.50
2019-06-11T01:24:18.544Z,15.30
2019-06-11T01:26:44.714Z,15.20
2019-06-11T01:29:14.314Z,15.30
2019-06-11T01:31:38.865Z,15.20
2019-06-11T01:34:07.581Z,15.40
2019-06-11T01:36:32.977Z,15.50
2019-06-11T01:38:59.043Z,15.50
2019-06-11T01:41:25.372Z,15.50
2019-06-11T01:43:52.340Z,15.40
2019-06-11T01:46:18.947Z,15.40
2019-06-11T01:48:45.039Z,15.30
2019-06-11T01:51:13.976Z,15.30
2019-06-11T01:53:39.096Z,15.30
2019-06-11T01:56:07.317Z,15.30
2019-06-11T01:58:33.489Z,15.30
2019-06-11T02:00:59.644Z,15.30
2019-06-11T02:03:37.062Z,15.20
2019-06-11T02:05:53.827Z,15.10
2019-06-11T02:08:19.891Z,15.00
2019-06-11T02:10:45.968Z,15.10
2019-06-11T02:13:15.058Z,15.00
2019-06-11T02:15:40.054Z,15.00
2019-06-11T02:18:06.181Z,15.00
2019-06-11T02:20:32.931Z,15.00
2019-06-11T02:22:59.160Z,15.00
2019-06-11T02:25:25.265Z,14.90
2019-06-11T02:27:53.370Z,14.90
2019-06-11T02:30:38.835Z,14.90
2019-06-11T02:32:47.642Z,14.80
2019-06-11T02:35:39.595Z,14.80
2019-06-11T02:37:42.814Z,15.00
2019-06-11T02:40:13.781Z,14.90
2019-06-11T02:42:37.285Z,15.00
2019-06-11T02:45:04.862Z,15.00
2019-06-11T02:47:34.226Z,15.00
2019-06-11T02:50:02.236Z,15.00
2019-06-11T02:52:28.514Z,14.90
2019-06-11T02:54:54.876Z,14.90
2019-06-11T02:57:28.186Z,14.90
2019-06-11T02:59:51.458Z,14.90
2019-06-11T03:02:23.078Z,14.80
2019-06-11T03:04:57.587Z,14.80
2019-06-11T03:07:20.489Z,14.80
2019-06-11T03:09:48.224Z,14.70
2019-06-11T03:12:17.187Z,14.60
2019-06-11T03:14:47.239Z,14.60
2019-06-11T03:17:17.841Z,14.60
2019-06-11T03:19:45.379Z,14.60
2019-06-11T03:22:14.060Z,14.50
2019-06-11T03:24:41.813Z,14.40
2019-06-11T03:27:07.521Z,14.40
2019-06-11T03:29:34.632Z,14.40
2019-06-11T03:35:49.991Z,14.10
2019-06-11T03:37:29.018Z,13.90
2019-06-11T03:39:41.267Z,13.80
2019-06-11T03:41:53.020Z,13.70
2019-06-11T03:44:22.138Z,13.60
2019-06-11T03:46:47.226Z,13.50
2019-06-11T03:49:15.318Z,13.40
2019-06-11T03:51:42.360Z,13.30
2019-06-11T03:54:10.973Z,13.20
2019-06-11T03:56:36.599Z,12.90
2019-06-11T03:59:03.268Z,13.00
2019-06-11T04:01:37.307Z,13.00
2019-06-11T04:03:57.449Z,12.80
2019-06-11T04:06:50.924Z,12.80
2019-06-11T04:08:51.592Z,12.80
2019-06-11T04:11:19.360Z,12.60
2019-06-11T04:13:45.658Z,12.60
2019-06-11T04:16:12.796Z,12.50
2019-06-11T04:18:42.471Z,12.50
2019-06-11T04:21:07.583Z,12.50
2019-06-11T04:23:37.504Z,12.60
2019-06-11T04:26:02.344Z,12.70
2019-06-11T04:28:31.623Z,12.70
2019-06-11T04:30:56.726Z,12.70
2019-06-11T04:33:30.231Z,12.70
2019-06-11T04:35:51.526Z,12.70
2019-06-11T04:38:24.107Z,12.70
2019-06-11T04:40:45.692Z,12.80
2019-06-11T04:43:11.761Z,12.90
2019-06-11T04:45:43.438Z,13.00
2019-06-11T04:48:12.852Z,13.00
2019-06-11T04:50:41.797Z,13.10
2019-06-11T04:53:11.848Z,13.20
2019-06-11T04:55:41.646Z,13.30
2019-06-11T04:58:11.821Z,13.30
2019-06-11T05:04:14.051Z,13.30
2019-06-11T05:05:42.991Z,13.60
2019-06-11T05:08:10.690Z,13.70
2019-06-11T05:10:42.738Z,13.70
2019-06-11T05:13:03.413Z,13.70
2019-06-11T05:15:35.497Z,13.80
2019-06-11T05:17:57.470Z,13.80
2019-06-11T05:20:29.267Z,13.80
2019-06-11T05:22:51.923Z,13.70
2019-06-11T05:25:20.130Z,13.70
2019-06-11T05:27:46.205Z,13.80
2019-06-11T05:30:17.643Z,13.90
2019-06-11T05:32:41.795Z,13.90
2019-06-11T05:35:08.244Z,14.00
2019-06-11T05:37:59.435Z,14.20
2019-06-11T05:40:04.402Z,14.30
2019-06-11T05:42:35.851Z,14.60
2019-06-11T05:45:00.807Z,14.90
2019-06-11T05:47:27.299Z,15.10
2019-06-11T05:49:54.389Z,15.30
2019-06-11T05:52:22.095Z,15.40
2019-06-11T05:54:50.319Z,15.60
2019-06-11T05:57:16.444Z,15.80
2019-06-11T05:59:42.508Z,15.60
2019-06-11T06:02:11.097Z,15.60
2019-06-11T06:04:36.565Z,15.70
2019-06-11T06:07:02.827Z,15.10
2019-06-11T06:09:32.036Z,15.50
2019-06-11T06:11:56.891Z,15.60
2019-06-11T06:14:24.087Z,15.50
2019-06-11T06:16:51.172Z,15.50
2019-06-11T06:19:17.527Z,15.40
2019-06-11T06:21:43.603Z,15.50
2019-06-11T06:24:23.248Z,15.80
2019-06-11T06:26:40.218Z,15.80
2019-06-11T06:29:06.039Z,16.20
2019-06-11T06:31:32.566Z,16.40
2019-06-11T06:34:00.181Z,16.70
2019-06-11T06:36:27.612Z,16.80
2019-06-11T06:38:53.888Z,17.10
2019-06-11T06:41:21.038Z,17.20
2019-06-11T06:43:47.448Z,17.30
2019-06-11T06:46:13.539Z,17.40
2019-06-11T06:48:41.452Z,17.50
2019-06-11T06:51:07.596Z,17.30
2019-06-11T06:53:34.985Z,17.50
2019-06-11T06:56:01.665Z,17.60
2019-06-11T06:58:28.480Z,17.50
2019-06-11T07:00:55.752Z,17.30
2019-06-11T07:03:21.919Z,17.30
2019-06-11T07:05:50.639Z,17.30
2019-06-11T07:08:16.131Z,17.40
2019-06-11T07:10:45.757Z,17.50
2019-06-11T07:13:13.583Z,17.50
2019-06-11T07:15:45.438Z,17.60
2019-06-11T07:18:10.768Z,17.60
2019-06-11T07:20:38.471Z,17.50
2019-06-11T07:23:05.665Z,17.30
2019-06-11T07:25:35.941Z,17.10
2019-06-11T07:28:02.387Z,17.20
2019-06-11T07:30:30.338Z,17.50
2019-06-11T07:32:56.603Z,17.60
2019-06-11T07:35:23.459Z,17.80
2019-06-11T07:37:50.797Z,17.60
2019-06-11T07:40:17.317Z,17.60
2019-06-11T07:42:46.634Z,17.40
2019-06-11T07:45:11.958Z,17.50
2019-06-11T07:47:43.180Z,17.40
2019-06-11T07:50:06.535Z,17.50
2019-06-11T07:52:35.530Z,17.60
2019-06-11T07:55:01.356Z,17.80
2019-06-11T07:57:27.671Z,18.00
2019-06-11T07:59:53.747Z,18.30
2019-06-11T08:02:21.172Z,18.30
2019-06-11T08:04:53.123Z,18.40
2019-06-11T08:07:15.722Z,18.50
2019-06-11T08:10:09.592Z,18.60
2019-06-11T08:12:12.962Z,18.70
2019-06-11T08:14:42.248Z,18.70
2019-06-11T08:17:05.855Z,18.90
2019-06-11T08:19:38.448Z,18.80
2019-06-11T08:22:21.018Z,18.80
2019-06-11T08:24:33.360Z,18.80
2019-06-11T08:27:29.433Z,18.60
2019-06-11T08:29:23.941Z,18.50
2019-06-11T08:31:50.187Z,18.50
2019-06-11T08:34:16.419Z,18.40
2019-06-11T08:36:44.982Z,18.50
2019-06-11T08:39:10.580Z,18.50
2019-06-11T08:41:37.265Z,18.80
2019-06-11T08:44:03.558Z,19.00
2019-06-11T08:46:31.072Z,18.80
2019-06-11T08:49:00.448Z,19.10
2019-06-11T08:51:25.702Z,19.20
2019-06-11T08:53:51.755Z,19.00
2019-06-11T08:56:17.848Z,19.00
2019-06-11T08:58:44.859Z,19.00
2019-06-11T09:01:12.751Z,19.10
2019-06-11T09:03:42.057Z,19.30
2019-06-11T09:06:10.490Z,19.30
2019-06-11T09:08:35.208Z,19.40
2019-06-11T09:11:01.376Z,19.60
2019-06-11T09:13:27.473Z,19.70
2019-06-11T09:15:54.059Z,19.90
2019-06-11T09:18:21.155Z,20.10
2019-06-11T09:20:51.407Z,20.10
2019-06-11T09:23:15.489Z,20.30
2019-06-11T09:25:45.553Z,20.50
2019-06-11T09:28:10.709Z,20.80
2019-06-11T09:30:37.224Z,20.60
2019-06-11T09:33:03.300Z,20.90
2019-06-11T09:35:31.285Z,21.00
2019-06-11T09:37:59.863Z,21.10
2019-06-11T09:40:40.754Z,21.10
2019-06-11T09:42:54.122Z,21.10
2019-06-11T09:45:21.034Z,21.40
2019-06-11T09:47:59.412Z,21.60
2019-06-11T09:50:15.347Z,21.70
2019-06-11T09:52:42.968Z,21.80
2019-06-11T09:55:12.358Z,22.10
2019-06-11T09:57:38.402Z,22.50
2019-06-11T10:00:06.772Z,22.70
2019-06-11T10:02:32.848Z,23.10
2019-06-11T10:05:01.095Z,23.20
2019-06-11T10:07:26.912Z,23.30
2019-06-11T10:09:53.762Z,23.30
2019-06-11T10:12:20.780Z,23.20
2019-06-11T10:14:48.230Z,22.80
2019-06-11T10:17:15.053Z,23.00
2019-06-11T10:19:42.423Z,23.10
2019-06-11T10:22:10.694Z,23.30
2019-06-11T10:24:36.709Z,23.60
2019-06-11T10:27:03.488Z,23.60
2019-06-11T10:29:30.487Z,23.70
2019-06-11T10:31:56.751Z,24.10
2019-06-11T10:34:22.816Z,24.00
2019-06-11T10:36:50.807Z,23.80
2019-06-11T10:39:16.891Z,24.10
2019-06-11T10:41:50.473Z,24.30
2019-06-11T10:44:11.024Z,24.70
2019-06-11T10:46:37.223Z,24.90
2019-06-11T10:49:03.392Z,24.80
2019-06-11T10:51:30.689Z,24.90
2019-06-11T10:53:57.602Z,24.90
2019-06-11T10:56:23.835Z,24.70
2019-06-11T10:58:53.552Z,24.70
2019-06-11T11:01:17.920Z,25.10
2019-06-11T11:03:47.180Z,25.50
2019-06-11T11:06:13.486Z,25.50
2019-06-11T11:08:42.060Z,25.40
2019-06-11T11:11:07.624Z,25.30
2019-06-11T11:13:33.698Z,25.40
2019-06-11T11:16:01.626Z,25.40
2019-06-11T11:18:29.921Z,25.40
2019-06-11T11:20:56.541Z,25.60
2019-06-11T11:23:23.719Z,25.60
2019-06-11T11:25:53.245Z,25.60
2019-06-11T11:28:22.887Z,25.90
2019-06-11T11:30:46.174Z,25.90
2019-06-11T11:33:13.277Z,26.00
2019-06-11T11:35:39.339Z,25.90
2019-06-11T11:38:05.432Z,25.70
2019-06-11T11:40:37.996Z,26.10
2019-06-11T11:43:04.848Z,26.50
2019-06-11T11:45:31.062Z,26.30
2019-06-11T11:48:02.513Z,26.00
2019-06-11T11:50:25.429Z,25.90
2019-06-11T11:52:56.853Z,26.20
2019-06-11T11:55:26.999Z,25.90
2019-06-11T11:57:56.787Z,25.70
2019-06-11T12:00:41.518Z,25.80
2019-06-11T12:03:10.948Z,25.90
2019-06-11T12:05:35.936Z,26.30
2019-06-11T12:08:02.508Z,26.40
2019-06-11T12:10:30.530Z,26.90
2019-06-11T12:13:02.812Z,27.80
2019-06-11T12:15:24.645Z,28.40
2019-06-11T12:17:52.386Z,28.50
2019-06-11T12:20:20.526Z,29.00
2019-06-11T12:22:46.580Z,29.20
2019-06-11T12:25:29.537Z,28.70
2019-06-11T12:27:40.740Z,28.10
2019-06-11T12:30:11.985Z,27.70
2019-06-11T12:32:36.204Z,27.80
2019-06-11T12:35:04.283Z,27.70
2019-06-11T12:37:30.890Z,28.10
2019-06-11T12:39:58.962Z,28.60
2019-06-11T12:42:25.148Z,29.70
2019-06-11T12:44:53.238Z,30.20
2019-06-11T12:47:20.958Z,30.70
2019-06-11T12:49:47.193Z,31.00
2019-06-11T12:52:13.268Z,31.30
2019-06-11T12:54:41.163Z,31.10
2019-06-11T12:57:07.348Z,30.60
2019-06-11T12:59:33.431Z,29.90
2019-06-11T13:01:59.520Z,29.60
2019-06-11T13:04:25.608Z,30.20
2019-06-11T13:06:52.052Z,31.30
2019-06-11T13:09:20.434Z,32.30
2019-06-11T13:11:46.734Z,33.20
2019-06-11T13:14:12.811Z,33.70
2019-06-11T13:16:42.126Z,33.70
2019-06-11T13:19:07.067Z,33.80
2019-06-11T13:21:33.387Z,33.00
2019-06-11T13:24:01.730Z,32.10
2019-06-11T13:26:30.047Z,31.30
2019-06-11T13:28:56.052Z,31.00
2019-06-11T13:31:22.404Z,30.90
2019-06-11T13:33:50.489Z,30.40
2019-06-11T13:36:16.487Z,30.10
2019-06-11T13:38:42.659Z,29.90
2019-06-11T13:41:12.757Z,30.00
2019-06-11T13:43:51.079Z,30.10
2019-06-11T13:46:06.014Z,30.60
2019-06-11T13:48:32.353Z,31.10
2019-06-11T13:50:59.900Z,32.00
2019-06-11T13:53:26.527Z,33.10
2019-06-11T13:55:53.802Z,33.70
2019-06-11T13:58:21.544Z,33.80
2019-06-11T14:00:50.678Z,34.00
2019-06-11T14:03:16.533Z,34.70
2019-06-11T14:05:42.600Z,35.50
2019-06-11T14:08:10.657Z,35.30
2019-06-11T14:10:36.655Z,34.00
2019-06-11T14:13:06.240Z,33.00
2019-06-11T14:15:31.094Z,31.70
2019-06-11T14:17:57.336Z,30.80
2019-06-11T14:20:23.613Z,30.00
2019-06-11T14:22:50.891Z,29.90
2019-06-11T14:25:17.284Z,29.40
2019-06-11T14:27:43.372Z,29.00
2019-06-11T14:30:18.465Z,29.60
2019-06-11T14:32:41.666Z,30.30
2019-06-11T14:35:11.467Z,30.80
2019-06-11T14:37:37.628Z,31.00
2019-06-11T14:40:08.306Z,31.20
2019-06-11T14:42:35.188Z,31.90
2019-06-11T14:45:03.273Z,33.50
2019-06-11T14:47:30.724Z,35.00
2019-06-11T14:50:00.961Z,36.00
2019-06-11T14:52:24.897Z,36.60
2019-06-11T14:54:51.071Z,36.00
2019-06-11T14:57:17.137Z,35.50
2019-06-11T14:59:45.540Z,35.10
2019-06-11T15:02:11.189Z,35.30
2019-06-11T15:04:37.268Z,36.10
2019-06-11T15:07:09.271Z,35.60
2019-06-11T15:09:31.721Z,34.20
2019-06-11T15:12:01.879Z,32.70
2019-06-11T15:14:25.885Z,31.10
2019-06-11T15:16:51.987Z,30.50
2019-06-11T15:19:20.593Z,30.50
2019-06-11T15:21:46.045Z,30.70
2019-06-11T15:24:15.604Z,30.70
2019-06-11T15:26:41.245Z,30.50
2019-06-11T15:29:09.472Z,30.20
2019-06-11T15:31:35.510Z,30.60
2019-06-11T15:34:04.410Z,31.80
2019-06-11T15:36:29.564Z,33.00
2019-06-11T15:38:55.636Z,33.90
2019-06-11T15:41:22.533Z,33.60
2019-06-11T15:43:50.689Z,33.10
2019-06-11T15:46:16.997Z,32.50
2019-06-11T15:48:43.238Z,32.00
2019-06-11T15:51:09.419Z,31.90
2019-06-11T15:53:35.495Z,32.40
2019-06-11T15:56:06.146Z,31.50
2019-06-11T15:58:31.699Z,30.50
2019-06-11T16:00:57.557Z,29.60
2019-06-11T16:03:23.624Z,28.30
2019-06-11T16:05:51.115Z,27.20
2019-06-11T16:08:17.476Z,26.50
2019-06-11T16:10:43.560Z,26.10
2019-06-11T16:13:16.637Z,25.40
2019-06-11T16:15:43.570Z,24.60
2019-06-11T16:18:05.727Z,24.40
2019-06-11T16:20:31.791Z,24.00
2019-06-11T16:22:57.876Z,24.00
2019-06-11T16:25:23.943Z,24.80
2019-06-11T16:27:50.851Z,25.20
2019-06-11T16:30:18.544Z,25.30
2019-06-11T16:32:45.508Z,25.40
2019-06-11T16:35:16.246Z,25.80
2019-06-11T16:37:40.638Z,26.60
2019-06-11T16:40:07.640Z,27.70
2019-06-11T16:42:34.077Z,28.30
2019-06-11T16:45:00.315Z,27.60
2019-06-11T16:47:26.480Z,27.90
2019-06-11T16:49:53.414Z,29.20
2019-06-11T16:52:21.514Z,30.60
2019-06-11T16:54:47.718Z,30.90
2019-06-11T16:57:14.997Z,30.80
2019-06-11T16:59:41.797Z,29.60
2019-06-11T17:02:10.848Z,28.80
2019-06-11T17:04:35.925Z,28.60
2019-06-11T17:07:02.013Z,28.40
2019-06-11T17:09:28.072Z,27.30
2019-06-11T17:11:54.139Z,26.10
2019-06-11T17:14:24.017Z,24.90
2019-06-11T17:16:50.579Z,24.00
2019-06-11T17:19:16.755Z,23.40
2019-06-11T17:21:44.051Z,22.60
2019-06-11T17:24:12.167Z,22.20
2019-06-11T17:26:40.371Z,21.70
2019-06-11T17:29:06.100Z,21.30
2019-06-11T17:31:32.170Z,21.10
2019-06-11T17:34:00.352Z,20.90
2019-06-11T17:36:28.229Z,20.70
2019-06-11T17:38:54.210Z,20.50
2019-06-11T17:41:27.257Z,20.50
2019-06-11T17:43:50.281Z,20.30
2019-06-11T17:46:31.439Z,20.10
2019-06-11T17:48:44.430Z,19.90
2019-06-11T17:51:10.528Z,19.70
2019-06-11T17:53:36.709Z,19.50
2019-06-11T17:56:03.377Z,19.50
2019-06-11T17:58:29.461Z,19.40
2019-06-11T18:00:55.534Z,19.50
2019-06-11T18:03:24.306Z,19.60
2019-06-11T18:05:51.824Z,19.70
2019-06-11T18:08:21.388Z,19.60
2019-06-11T18:10:46.275Z,19.60
2019-06-11T18:13:12.367Z,19.40
2019-06-11T18:15:40.675Z,19.20
2019-06-11T18:18:06.437Z,19.20
2019-06-11T18:20:32.499Z,19.30
2019-06-11T18:23:00.631Z,19.20
2019-06-11T18:25:30.002Z,19.20
2019-06-11T18:27:54.632Z,19.30
2019-06-11T18:30:20.681Z,19.20
2019-06-11T18:32:46.968Z,19.20
2019-06-11T18:35:13.354Z,19.20
2019-06-11T18:37:41.362Z,19.30
2019-06-11T18:40:07.789Z,19.30
2019-06-11T18:42:33.957Z,19.20
2019-06-11T18:45:00.043Z,19.20
2019-06-11T18:47:27.281Z,18.70
2019-06-11T18:49:54.109Z,18.60
2019-06-11T18:52:22.086Z,18.50
2019-06-11T18:54:50.119Z,18.50
2019-06-11T18:57:16.945Z,18.60
2019-06-11T18:59:43.024Z,18.60
2019-06-11T19:02:09.088Z,18.70
2019-06-11T19:04:35.434Z,18.70
2019-06-11T19:07:01.632Z,18.60
2019-06-11T19:09:28.049Z,18.50
2019-06-11T19:11:55.395Z,18.30
2019-06-11T19:14:23.470Z,18.20
2019-06-11T19:16:51.057Z,18.30
2019-06-11T19:19:17.427Z,18.20
2019-06-11T19:21:43.514Z,18.20
2019-06-11T19:24:10.478Z,18.20
2019-06-11T19:26:36.872Z,18.20
2019-06-11T19:29:03.083Z,18.30
2019-06-11T19:31:34.366Z,18.30
2019-06-11T19:33:57.115Z,18.40
2019-06-11T19:36:25.272Z,18.50
2019-06-11T19:38:51.186Z,18.50
2019-06-11T19:41:17.253Z,18.40
2019-06-11T19:43:43.736Z,18.30
2019-06-11T19:46:09.931Z,18.20
2019-06-11T19:48:36.806Z,18.20
2019-06-11T19:51:03.621Z,18.20
2019-06-11T19:53:31.639Z,18.10
2019-06-11T19:55:57.736Z,18.30
2019-06-11T19:58:25.366Z,18.20
2019-06-11T20:00:51.692Z,18.20
2019-06-11T20:03:17.976Z,17.90
2019-06-11T20:05:44.090Z,17.80
2019-06-11T20:08:10.861Z,17.60
2019-06-11T20:10:42.511Z,17.50
2019-06-11T20:13:05.068Z,17.50
2019-06-11T20:15:34.600Z,17.30
2019-06-11T20:18:04.057Z,17.20
2019-06-11T20:20:28.354Z,17.10
2019-06-11T20:22:55.087Z,17.20
2019-06-11T20:25:21.163Z,17.20
2019-06-11T20:27:47.346Z,17.20
2019-06-11T20:30:14.043Z,17.10
2019-06-11T20:32:44.607Z,17.30
2019-06-11T20:35:08.594Z,17.40
2019-06-11T20:37:35.659Z,17.50
2019-06-11T20:40:03.960Z,17.50
2019-06-11T20:42:33.642Z,17.50
2019-06-11T20:45:00.683Z,17.50
2019-06-11T20:47:25.987Z,17.50
2019-06-11T20:49:52.069Z,17.60
2019-06-11T20:52:20.191Z,17.70
2019-06-11T20:54:46.123Z,17.50
2019-06-11T20:57:12.209Z,17.40
2019-06-11T20:59:39.126Z,17.60
2019-06-11T21:02:06.247Z,17.60
2019-06-11T21:04:33.594Z,17.60
2019-06-11T21:07:01.210Z,17.80
2019-06-11T21:09:27.480Z,17.80
2019-06-11T21:11:53.564Z,17.90
2019-06-11T21:14:20.344Z,18.00
2019-06-11T21:16:46.729Z,18.10
2019-06-11T21:19:12.818Z,18.10
2019-06-11T21:21:41.168Z,18.00
2019-06-11T21:24:06.980Z,18.10
2019-06-11T21:26:33.235Z,18.10
2019-06-11T21:29:00.255Z,18.00
2019-06-11T21:31:26.656Z,18.00
2019-06-11T21:33:52.722Z,17.90
2019-06-11T21:36:20.229Z,17.80
2019-06-11T21:38:46.759Z,17.90
2019-06-11T21:41:12.956Z,17.80
2019-06-11T21:43:41.428Z,17.80
2019-06-11T21:46:07.029Z,17.80
2019-06-11T21:48:49.594Z,17.80
2019-06-11T21:51:01.122Z,17.80
2019-06-11T21:53:27.184Z,17.80
2019-06-11T21:55:53.276Z,17.60
2019-06-11T21:58:21.676Z,17.50
2019-06-11T22:00:52.167Z,17.40
2019-06-11T22:03:15.732Z,17.40
2019-06-11T22:05:42.453Z,17.40
2019-06-11T22:08:10.379Z,17.20
2019-06-11T22:10:36.660Z,17.00
2019-06-11T22:13:03.027Z,16.80
2019-06-11T22:15:30.904Z,16.70
2019-06-11T22:17:57.092Z,16.70
2019-06-11T22:20:23.161Z,16.60
2019-06-11T22:22:51.272Z,16.70
2019-06-11T22:25:17.319Z,16.70
2019-06-11T22:27:44.777Z,16.70
2019-06-11T22:30:12.096Z,16.80
2019-06-11T22:32:38.181Z,16.70
2019-06-11T22:35:04.848Z,16.80
2019-06-11T22:37:31.258Z,16.70
2019-06-11T22:39:57.410Z,16.70
2019-06-11T22:42:23.588Z,16.80
2019-06-11T22:44:53.223Z,16.80
2019-06-11T22:47:20.027Z,16.70
2019-06-11T22:49:46.519Z,16.80
2019-06-11T22:52:13.617Z,16.70
2019-06-11T22:54:42.841Z,16.70
2019-06-11T22:57:07.696Z,16.60
2019-06-11T22:59:33.761Z,16.60
2019-06-11T23:02:00.780Z,16.50
2019-06-11T23:04:27.131Z,16.50
2019-06-11T23:06:53.317Z,16.60
2019-06-11T23:09:20.845Z,16.40
2019-06-11T23:11:47.923Z,16.50
2019-06-11T23:14:15.238Z,16.60
2019-06-11T23:16:43.679Z,16.50
2019-06-11T23:19:11.027Z,16.50
2019-06-11T23:21:37.376Z,16.50
2019-06-11T23:24:03.448Z,16.40
2019-06-11T23:26:31.119Z,16.40
2019-06-11T23:28:57.413Z,16.30
2019-06-11T23:31:23.596Z,16.30
2019-06-11T23:33:50.762Z,16.30
2019-06-11T23:36:19.956Z,16.40
2019-06-11T23:38:46.156Z,16.40
2019-06-11T23:41:12.409Z,16.60
2019-06-11T23:43:40.864Z,16.80
2019-06-11T23:46:06.538Z,16.80
2019-06-11T23:48:32.641Z,16.90
2019-06-11T23:50:58.708Z,16.90
2019-06-11T23:53:24.795Z,17.00
2019-06-11T23:55:51.354Z,17.00
2019-06-11T23:58:17.749Z,17.10
